Time;durP1;ratioP1;P1;durP2;ratioP2;P2;SDS_P1;SDS_P2;PMS_P1;PMS_P2;Temp;Humidity;BMP_temperature;BMP_pressure;BME280_temperature;BME280_humidity;BME280_pressure;Samples;Min_cycle;Max_cycle;Signal;HPM_P1;HPM_P2
2023/12/11 00:02:57;;;;;;;194.25;142.55;;;22.90;71.30;;;;;;6220546;28;94138;-62
2023/12/11 00:06:00;;;;;;;189.60;137.13;;;22.90;71.10;;;;;;6233542;28;93494;-61
2023/12/11 00:09:02;;;;;;;189.35;139.35;;;23.00;71.10;;;;;;6215059;28;94173;-61
2023/12/11 00:12:04;;;;;;;185.48;137.18;;;22.90;71.10;;;;;;6221734;28;94000;-61
2023/12/11 00:15:07;;;;;;;184.05;136.13;;;22.90;71.10;;;;;;6213193;28;95105;-61
2023/12/11 00:18:10;;;;;;;184.52;135.27;;;22.90;71.10;;;;;;6204236;28;94359;-61
2023/12/11 00:21:13;;;;;;;185.98;135.80;;;22.90;71.10;;;;;;6201391;28;94215;-62
2023/12/11 00:24:15;;;;;;;175.38;129.93;;;22.90;71.10;;;;;;6210390;28;94244;-61
2023/12/11 00:27:17;;;;;;;173.20;129.07;;;22.90;71.20;;;;;;6217422;28;94547;-62
2023/12/11 00:30:19;;;;;;;171.43;127.30;;;22.90;71.10;;;;;;6199891;28;93915;-61
2023/12/11 00:33:22;;;;;;;171.85;127.30;;;22.90;71.10;;;;;;6213373;28;94125;-61
2023/12/11 00:36:25;;;;;;;167.98;125.68;;;22.80;71.00;;;;;;6202384;28;93381;-61
2023/12/11 00:39:27;;;;;;;166.88;124.57;;;22.80;71.00;;;;;;6214990;28;94203;-61
2023/12/11 00:42:29;;;;;;;157.70;118.95;;;22.80;71.00;;;;;;6223799;28;94063;-61
2023/12/11 00:45:31;;;;;;;158.18;118.70;;;22.80;71.00;;;;;;6223801;28;95044;-62
2023/12/11 00:48:34;;;;;;;154.57;115.90;;;22.80;71.00;;;;;;6202655;28;94341;-61
2023/12/11 00:51:36;;;;;;;146.25;109.93;;;22.80;70.80;;;;;;6219456;28;94192;-61
2023/12/11 00:54:38;;;;;;;132.75;98.97;;;22.80;70.70;;;;;;6236359;28;94003;-61
2023/12/11 00:57:40;;;;;;;97.00;72.65;;;22.80;69.70;;;;;;6231736;28;94066;-61
2023/12/11 01:00:42;;;;;;;84.50;61.50;;;22.80;67.70;;;;;;6234767;27;92946;-61
2023/12/11 01:03:46;;;;;;;79.40;59.05;;;22.80;66.40;;;;;;6246523;28;94066;-61
2023/12/11 01:06:48;;;;;;;82.40;60.58;;;22.70;66.20;;;;;;6230174;28;93344;-62
2023/12/11 01:09:50;;;;;;;82.30;61.28;;;22.70;66.60;;;;;;6234513;28;94151;-61
2023/12/11 01:12:52;;;;;;;82.63;60.40;;;22.70;67.00;;;;;;6226651;28;94207;-61
2023/12/11 01:15:54;;;;;;;81.63;60.55;;;22.70;67.40;;;;;;6229654;28;95234;-62
2023/12/11 01:18:58;;;;;;;81.20;60.10;;;22.70;67.60;;;;;;6227886;28;94047;-61
2023/12/11 01:22:00;;;;;;;81.40;60.17;;;22.70;67.80;;;;;;6210267;28;94202;-62
2023/12/11 01:25:03;;;;;;;77.88;58.78;;;22.70;67.90;;;;;;6226925;28;94163;-62
2023/12/11 01:28:05;;;;;;;78.68;58.63;;;22.60;68.10;;;;;;6224466;28;94196;-61
2023/12/11 01:31:07;;;;;;;75.50;57.72;;;22.70;70.10;;;;;;6221964;28;94127;-62
2023/12/11 01:34:10;;;;;;;74.65;56.42;;;22.70;69.20;;;;;;6227096;28;94417;-61
2023/12/11 01:37:12;;;;;;;78.10;57.92;;;22.70;68.90;;;;;;6222119;28;93325;-61
2023/12/11 01:40:14;;;;;;;74.22;56.20;;;22.70;68.80;;;;;;6220621;28;94614;-61
2023/12/11 01:43:18;;;;;;;74.15;55.80;;;22.80;68.90;;;;;;6221064;28;94078;-61
2023/12/11 01:46:20;;;;;;;73.60;54.67;;;22.70;68.90;;;;;;6218149;28;93986;-61
2023/12/11 01:49:23;;;;;;;72.63;55.38;;;22.70;68.90;;;;;;6225031;28;93140;-61
2023/12/11 01:52:26;;;;;;;70.60;54.13;;;22.70;68.90;;;;;;6223812;28;94200;-61
2023/12/11 01:55:29;;;;;;;67.53;50.80;;;22.70;69.10;;;;;;6223723;28;96514;-61
2023/12/11 01:58:31;;;;;;;66.22;50.92;;;22.60;69.10;;;;;;6219063;28;94093;-61
2023/12/11 02:01:36;;;;;;;69.55;51.40;;;22.60;69.20;;;;;;6215906;28;94596;-61
2023/12/11 02:04:40;;;;;;;65.47;50.60;;;22.60;69.20;;;;;;6222924;28;94424;-61
2023/12/11 02:07:42;;;;;;;65.55;50.30;;;22.60;69.30;;;;;;6226247;28;93408;-61
2023/12/11 02:10:44;;;;;;;62.88;48.40;;;22.60;69.40;;;;;;6221687;28;94391;-61
2023/12/11 02:13:46;;;;;;;64.55;48.22;;;22.60;69.40;;;;;;6224596;28;94250;-61
2023/12/11 02:16:49;;;;;;;63.10;47.38;;;22.60;69.40;;;;;;6222116;28;94938;-61
2023/12/11 02:19:52;;;;;;;60.30;46.25;;;22.50;69.40;;;;;;6222267;28;94166;-62
2023/12/11 02:22:56;;;;;;;59.65;45.97;;;22.50;69.40;;;;;;6225840;28;94142;-61
2023/12/11 02:26:11;;;;;;;55.38;43.30;;;22.50;69.50;;;;;;6221969;28;94475;-62
2023/12/11 02:29:13;;;;;;;61.90;45.42;;;22.50;69.60;;;;;;6218490;28;94538;-61
2023/12/11 02:32:17;;;;;;;54.15;42.88;;;22.50;70.50;;;;;;6211609;28;94180;-61
2023/12/11 02:35:19;;;;;;;55.55;42.92;;;22.50;69.70;;;;;;6220012;28;94175;-61
2023/12/11 02:38:21;;;;;;;51.55;41.45;;;22.50;69.70;;;;;;6223144;28;93465;-61
2023/12/11 02:41:24;;;;;;;53.33;42.55;;;22.50;70.60;;;;;;6222136;28;93117;-61
2023/12/11 02:44:26;;;;;;;52.53;40.92;;;22.40;69.60;;;;;;6220944;28;94029;-61
2023/12/11 02:47:29;;;;;;;53.17;40.53;;;22.40;69.70;;;;;;6218461;28;95363;-61
2023/12/11 02:50:31;;;;;;;49.38;39.42;;;22.40;69.70;;;;;;6223664;28;94202;-61
2023/12/11 02:53:33;;;;;;;49.42;39.38;;;22.40;69.80;;;;;;6218400;28;94424;-61
2023/12/11 02:56:39;;;;;;;47.78;37.78;;;22.40;69.80;;;;;;6227648;28;93007;-61
2023/12/11 02:59:41;;;;;;;48.05;37.13;;;22.40;69.80;;;;;;6225322;28;94261;-61
2023/12/11 03:02:43;;;;;;;46.97;36.88;;;22.30;69.80;;;;;;6229357;28;94035;-62
2023/12/11 03:05:45;;;;;;;45.85;36.15;;;22.40;70.70;;;;;;6235114;28;94553;-61
2023/12/11 03:08:47;;;;;;;45.15;35.97;;;22.40;69.80;;;;;;6229584;28;93333;-61
2023/12/11 03:11:52;;;;;;;43.17;35.00;;;22.40;69.80;;;;;;6224483;28;94510;-62
2023/12/11 03:14:54;;;;;;;44.55;35.75;;;22.40;70.80;;;;;;6213588;28;94342;-62
2023/12/11 03:17:56;;;;;;;46.22;35.20;;;22.40;70.80;;;;;;6225261;28;95393;-62
2023/12/11 03:20:58;;;;;;;43.25;33.45;;;22.30;69.80;;;;;;6226800;28;94670;-61
2023/12/11 03:24:00;;;;;;;39.45;31.75;;;22.40;69.80;;;;;;6240559;28;94219;-61
2023/12/11 03:27:04;;;;;;;41.47;33.78;;;22.40;69.80;;;;;;6230343;28;95237;-62
2023/12/11 03:30:07;;;;;;;40.80;33.20;;;22.40;69.80;;;;;;6241618;28;94140;-61
2023/12/11 03:33:09;;;;;;;40.63;32.38;;;22.40;69.90;;;;;;6228718;28;94059;-61
2023/12/11 03:36:11;;;;;;;39.33;32.38;;;22.30;69.80;;;;;;6236144;28;94087;-61
2023/12/11 03:39:14;;;;;;;38.53;31.58;;;22.30;69.80;;;;;;6248643;28;93717;-61
2023/12/11 03:42:17;;;;;;;38.63;30.25;;;22.30;69.80;;;;;;6219914;28;94113;-61
2023/12/11 03:45:19;;;;;;;40.50;30.77;;;22.30;69.80;;;;;;6220500;28;94100;-62
2023/12/11 03:48:21;;;;;;;39.03;30.55;;;22.30;69.70;;;;;;6222280;28;95012;-62
2023/12/11 03:51:23;;;;;;;35.63;28.92;;;22.30;69.80;;;;;;6214611;28;94210;-61
2023/12/11 03:54:25;;;;;;;35.05;28.65;;;22.30;69.80;;;;;;6226925;28;94423;-62
2023/12/11 03:57:29;;;;;;;34.00;27.88;;;22.30;69.80;;;;;;6225245;28;94162;-62
2023/12/11 04:00:31;;;;;;;32.40;27.40;;;22.30;69.80;;;;;;6220037;28;94121;-62
2023/12/11 04:03:33;;;;;;;32.17;26.80;;;22.30;69.80;;;;;;6202899;28;94398;-62
2023/12/11 04:06:35;;;;;;;31.15;26.17;;;22.30;69.80;;;;;;6221038;28;94147;-61
2023/12/11 04:09:37;;;;;;;31.42;25.92;;;22.30;69.80;;;;;;6221569;28;93400;-62
2023/12/11 04:12:42;;;;;;;33.13;26.38;;;22.30;69.80;;;;;;6221783;28;94062;-62
2023/12/11 04:15:44;;;;;;;31.80;26.17;;;22.30;69.80;;;;;;6221135;28;94014;-62
2023/12/11 04:18:46;;;;;;;28.65;23.83;;;22.20;69.80;;;;;;6218775;28;95041;-61
2023/12/11 04:21:48;;;;;;;30.88;24.88;;;22.20;69.80;;;;;;6222280;28;94131;-62
2023/12/11 04:24:50;;;;;;;29.73;24.48;;;22.20;69.80;;;;;;6227689;28;95249;-61
2023/12/11 04:27:54;;;;;;;30.98;24.20;;;22.20;69.80;;;;;;6216358;28;94080;-62
2023/12/11 04:30:56;;;;;;;30.88;25.05;;;22.20;69.80;;;;;;6222646;28;94118;-61
2023/12/11 04:33:58;;;;;;;28.60;23.30;;;22.20;69.80;;;;;;6222961;28;94099;-61
2023/12/11 04:37:00;;;;;;;25.70;21.80;;;22.20;69.80;;;;;;6219046;28;94373;-62
2023/12/11 04:40:03;;;;;;;27.58;22.95;;;22.20;69.80;;;;;;6222629;28;93570;-61
2023/12/11 04:43:06;;;;;;;27.02;22.20;;;22.20;69.90;;;;;;6223168;28;94623;-62
2023/12/11 04:46:08;;;;;;;26.15;21.30;;;22.20;70.00;;;;;;6220099;28;94284;-62
2023/12/11 04:49:10;;;;;;;25.58;21.73;;;22.20;70.00;;;;;;6223028;28;95095;-61
2023/12/11 04:52:12;;;;;;;24.33;20.42;;;22.20;70.00;;;;;;6230762;28;93006;-61
2023/12/11 04:55:15;;;;;;;25.00;21.30;;;22.20;70.00;;;;;;6217378;28;94048;-61
2023/12/11 04:58:20;;;;;;;24.23;19.70;;;22.20;70.00;;;;;;6205587;28;94185;-62
2023/12/11 05:01:25;;;;;;;24.63;20.05;;;22.20;69.90;;;;;;6217430;28;94097;-62
2023/12/11 05:04:27;;;;;;;23.45;19.55;;;22.20;69.80;;;;;;6217600;28;93025;-62
2023/12/11 05:07:29;;;;;;;24.35;20.13;;;22.20;70.00;;;;;;6228168;28;94046;-61
2023/12/11 05:10:32;;;;;;;22.48;19.25;;;22.30;70.00;;;;;;6228771;28;93373;-61
2023/12/11 05:13:36;;;;;;;22.38;19.08;;;22.30;70.00;;;;;;6221817;28;94297;-62
2023/12/11 05:16:38;;;;;;;21.95;18.75;;;22.30;70.00;;;;;;6234883;28;94268;-61
2023/12/11 05:19:40;;;;;;;23.15;19.85;;;22.30;70.00;;;;;;6227483;28;95117;-62
2023/12/11 05:22:42;;;;;;;20.40;17.63;;;22.30;70.80;;;;;;6235387;28;93020;-61
2023/12/11 05:25:44;;;;;;;23.33;19.38;;;22.30;70.10;;;;;;6214117;28;93952;-61
2023/12/11 05:28:48;;;;;;;21.30;17.85;;;22.30;70.00;;;;;;6225283;28;94371;-62
2023/12/11 05:31:50;;;;;;;20.08;17.13;;;22.30;70.10;;;;;;6227740;28;93950;-61
2023/12/11 05:34:52;;;;;;;20.35;17.70;;;22.30;70.30;;;;;;6214861;28;94685;-61
2023/12/11 05:37:57;;;;;;;22.00;17.45;;;22.30;70.30;;;;;;6226736;28;94204;-62
2023/12/11 05:40:59;;;;;;;20.42;17.08;;;22.30;70.30;;;;;;6220881;28;93482;-62
2023/12/11 05:44:02;;;;;;;19.38;16.48;;;22.30;70.30;;;;;;6213044;28;94818;-61
2023/12/11 05:47:05;;;;;;;17.90;15.85;;;22.30;70.20;;;;;;6227656;28;92025;-61
2023/12/11 05:50:09;;;;;;;19.15;16.27;;;22.30;70.10;;;;;;6225890;28;95136;-61
2023/12/11 05:53:11;;;;;;;18.83;15.63;;;22.30;70.10;;;;;;6227066;28;94303;-61
2023/12/11 05:56:13;;;;;;;17.52;15.35;;;22.30;70.10;;;;;;6213665;28;94151;-62
2023/12/11 05:59:17;;;;;;;17.80;15.65;;;22.30;70.20;;;;;;6209576;28;93965;-61
2023/12/11 06:02:19;;;;;;;17.13;14.90;;;22.30;70.20;;;;;;6216991;28;94284;-61
2023/12/11 06:05:21;;;;;;;19.02;15.15;;;22.30;71.10;;;;;;6206193;28;94172;-61
2023/12/11 06:08:23;;;;;;;17.63;14.80;;;22.30;70.30;;;;;;6223626;28;94186;-62
2023/12/11 06:11:25;;;;;;;17.27;14.48;;;22.30;70.30;;;;;;6227416;28;93341;-61
2023/12/11 06:14:28;;;;;;;14.82;13.23;;;22.30;70.30;;;;;;6215623;28;94085;-61
2023/12/11 06:17:31;;;;;;;15.25;13.40;;;22.30;70.30;;;;;;6226967;28;94097;-62
2023/12/11 06:20:33;;;;;;;15.30;13.70;;;22.30;70.30;;;;;;6222350;28;95138;-61
2023/12/11 06:23:35;;;;;;;15.10;13.32;;;22.30;70.30;;;;;;6226464;28;94172;-61
2023/12/11 06:26:39;;;;;;;15.05;13.25;;;22.30;70.30;;;;;;6223230;28;94316;-62
2023/12/11 06:29:42;;;;;;;15.10;12.88;;;22.30;70.30;;;;;;6207014;28;94197;-61
2023/12/11 06:32:45;;;;;;;15.77;13.65;;;22.30;70.30;;;;;;6220781;28;94181;-61
2023/12/11 06:35:47;;;;;;;14.88;12.80;;;22.40;70.30;;;;;;6219339;28;94197;-62
2023/12/11 06:38:51;;;;;;;15.45;12.68;;;22.30;70.30;;;;;;6198028;28;94189;-61
2023/12/11 06:41:53;;;;;;;14.68;12.35;;;22.40;70.30;;;;;;6214665;28;93351;-61
2023/12/11 06:44:56;;;;;;;14.00;12.30;;;22.30;70.30;;;;;;6220701;28;94518;-61
2023/12/11 06:47:58;;;;;;;13.85;12.32;;;22.40;70.30;;;;;;6225642;28;94236;-62
2023/12/11 06:51:00;;;;;;;12.68;11.20;;;22.40;70.30;;;;;;6224222;28;95154;-61
2023/12/11 06:54:02;;;;;;;13.05;11.57;;;22.30;70.30;;;;;;6210050;28;93318;-62
2023/12/11 06:57:05;;;;;;;13.27;11.52;;;22.40;70.40;;;;;;6219552;28;94102;-61
2023/12/11 07:00:10;;;;;;;12.60;10.88;;;22.40;70.50;;;;;;6224473;28;94035;-61
2023/12/11 07:03:12;;;;;;;12.77;11.40;;;22.30;70.40;;;;;;6230319;28;94233;-61
2023/12/11 07:06:14;;;;;;;13.68;11.18;;;22.40;70.40;;;;;;6228758;28;94599;-62
2023/12/11 07:09:16;;;;;;;12.30;10.48;;;22.40;70.50;;;;;;6217212;28;94241;-62
2023/12/11 07:12:18;;;;;;;11.15;9.80;;;22.40;70.50;;;;;;6228855;28;93375;-61
2023/12/11 07:15:21;;;;;;;12.32;10.65;;;22.40;70.50;;;;;;6222758;28;94072;-61
2023/12/11 07:18:23;;;;;;;11.48;9.98;;;22.40;70.50;;;;;;6222135;28;94108;-61
2023/12/11 07:21:25;;;;;;;11.25;9.68;;;22.40;70.50;;;;;;6211801;28;95067;-62
2023/12/11 07:24:27;;;;;;;12.20;10.20;;;22.40;70.60;;;;;;6227002;28;94195;-62
2023/12/11 07:27:29;;;;;;;10.98;9.52;;;22.40;70.60;;;;;;6234117;28;93016;-62
2023/12/11 07:30:33;;;;;;;10.63;9.52;;;22.40;70.60;;;;;;6218514;28;94074;-61
2023/12/11 07:33:35;;;;;;;10.27;8.95;;;22.40;70.60;;;;;;6237594;28;94274;-62
2023/12/11 07:36:37;;;;;;;10.35;9.25;;;22.30;70.60;;;;;;6238046;28;94247;-62
2023/12/11 07:39:39;;;;;;;10.05;9.05;;;22.40;70.60;;;;;;6227188;28;94238;-61
2023/12/11 07:42:41;;;;;;;9.85;8.57;;;22.40;70.70;;;;;;6239589;28;93526;-62
2023/12/11 07:45:45;;;;;;;10.13;8.85;;;22.40;70.70;;;;;;6227679;28;94373;-61
2023/12/11 07:48:47;;;;;;;10.63;9.00;;;22.40;70.70;;;;;;6214300;28;94211;-62
2023/12/11 07:51:49;;;;;;;9.57;8.40;;;22.40;70.70;;;;;;6216168;28;95069;-61
2023/12/11 07:54:51;;;;;;;9.98;8.95;;;22.40;70.80;;;;;;6212959;28;94107;-61
2023/12/11 07:57:53;;;;;;;9.52;8.48;;;22.40;70.80;;;;;;6211965;28;94257;-62
2023/12/11 08:01:00;;;;;;;10.05;8.75;;;22.40;70.80;;;;;;6224600;28;93151;-61
2023/12/11 08:04:02;;;;;;;9.90;8.48;;;22.40;70.80;;;;;;6229904;28;94232;-61
2023/12/11 08:07:04;;;;;;;9.38;8.23;;;22.40;70.80;;;;;;6230129;28;93948;-61
2023/12/11 08:10:07;;;;;;;9.80;8.30;;;22.40;70.80;;;;;;6217253;28;94153;-61
2023/12/11 08:13:09;;;;;;;8.80;7.90;;;22.40;70.80;;;;;;6232249;28;93302;-61
2023/12/11 08:16:14;;;;;;;10.60;8.38;;;22.40;70.80;;;;;;6221223;28;94449;-61
2023/12/11 08:19:16;;;;;;;8.32;7.30;;;22.40;70.80;;;;;;6205104;28;94382;-61
2023/12/11 08:22:18;;;;;;;8.70;7.40;;;22.40;70.80;;;;;;6211954;28;95095;-61
2023/12/11 08:25:20;;;;;;;9.00;7.82;;;22.40;70.80;;;;;;6242240;28;94267;-62
2023/12/11 08:28:22;;;;;;;9.57;7.85;;;22.40;70.90;;;;;;6225785;28;94021;-62
2023/12/11 08:31:25;;;;;;;10.15;7.78;;;22.40;70.90;;;;;;6221792;28;94715;-61
2023/12/11 08:34:27;;;;;;;9.00;7.47;;;22.40;71.00;;;;;;6239432;28;94079;-62
2023/12/11 08:37:29;;;;;;;8.25;7.45;;;22.40;71.00;;;;;;6228512;28;94193;-62
2023/12/11 08:40:32;;;;;;;9.30;7.53;;;22.40;71.00;;;;;;6230518;28;94143;-62
2023/12/11 08:43:34;;;;;;;9.10;7.30;;;22.40;71.00;;;;;;6226068;28;93721;-62
2023/12/11 08:46:38;;;;;;;8.00;6.93;;;22.40;71.00;;;;;;6225701;28;94145;-62
2023/12/11 08:49:40;;;;;;;9.18;7.38;;;22.40;71.00;;;;;;6227524;28;94099;-62
2023/12/11 08:52:43;;;;;;;7.78;6.80;;;22.50;71.10;;;;;;6227539;28;95102;-62
2023/12/11 08:55:45;;;;;;;9.95;7.60;;;22.40;71.10;;;;;;6225276;28;94208;-62
2023/12/11 08:58:47;;;;;;;9.05;7.38;;;22.40;71.10;;;;;;6227295;28;94331;-62
2023/12/11 09:01:51;;;;;;;8.13;7.10;;;22.50;71.20;;;;;;6224976;28;94120;-61
2023/12/11 09:04:53;;;;;;;6.95;6.20;;;22.40;71.10;;;;;;6227054;28;94087;-62
2023/12/11 09:07:55;;;;;;;7.95;6.60;;;22.50;71.20;;;;;;6224699;28;94444;-62
2023/12/11 09:10:57;;;;;;;7.07;6.35;;;22.50;71.10;;;;;;6226287;28;94191;-62
2023/12/11 09:13:59;;;;;;;7.60;6.80;;;22.50;71.10;;;;;;6219047;28;93491;-62
2023/12/11 09:17:03;;;;;;;7.32;6.60;;;22.50;71.20;;;;;;6229190;28;94322;-62
2023/12/11 09:20:08;;;;;;;7.60;6.40;;;22.50;71.10;;;;;;6234037;28;94202;-62
2023/12/11 09:23:10;;;;;;;8.20;6.85;;;22.50;71.20;;;;;;6220161;28;95008;-62
2023/12/11 09:26:12;;;;;;;7.22;6.20;;;22.50;71.10;;;;;;6219405;28;94101;-62
2023/12/11 09:29:15;;;;;;;7.28;6.35;;;22.50;71.10;;;;;;6213405;28;94233;-61
2023/12/11 09:32:18;;;;;;;6.97;5.80;;;22.50;71.10;;;;;;6207685;28;94311;-61
2023/12/11 09:35:20;;;;;;;6.88;5.55;;;22.50;71.10;;;;;;6205344;28;94166;-62
2023/12/11 09:38:22;;;;;;;6.85;6.15;;;22.60;71.10;;;;;;6218971;28;93030;-62
2023/12/11 09:41:26;;;;;;;7.30;5.63;;;22.60;71.10;;;;;;6218416;28;94448;-62
2023/12/11 09:44:28;;;;;;;6.47;5.35;;;22.60;71.10;;;;;;6225447;28;93329;-62
2023/12/11 09:47:37;;;;;;;7.28;6.00;;;22.60;71.10;;;;;;6223132;28;94231;-61
2023/12/11 09:50:39;;;;;;;7.40;5.63;;;22.60;71.10;;;;;;6222632;28;94081;-62
2023/12/11 09:53:42;;;;;;;7.25;5.68;;;22.60;71.00;;;;;;6227554;28;95074;-61
2023/12/11 09:56:44;;;;;;;7.38;5.85;;;22.60;71.00;;;;;;6228579;28;94591;-62
2023/12/11 09:59:48;;;;;;;6.78;5.60;;;22.60;71.00;;;;;;6236147;28;94010;-62
2023/12/11 10:02:52;;;;;;;6.03;5.22;;;22.60;70.80;;;;;;6217760;28;94119;-62
2023/12/11 10:05:59;;;;;;;5.90;5.18;;;22.60;70.90;;;;;;6234274;28;94028;-62
2023/12/11 10:09:01;;;;;;;5.63;4.97;;;22.70;70.90;;;;;;6209060;28;94084;-62
2023/12/11 10:12:06;;;;;;;5.70;5.05;;;22.60;70.80;;;;;;6228879;28;94053;-62
2023/12/11 10:15:08;;;;;;;5.60;5.00;;;22.60;70.90;;;;;;6227157;28;93368;-62
2023/12/11 10:18:13;;;;;;;6.25;5.10;;;22.60;70.80;;;;;;6204973;28;94151;-61
2023/12/11 10:21:15;;;;;;;5.95;5.15;;;22.60;70.80;;;;;;6239175;28;94122;-62
2023/12/11 10:24:17;;;;;;;6.22;5.28;;;22.70;70.90;;;;;;6239120;28;94964;-62
2023/12/11 10:27:23;;;;;;;5.68;5.03;;;22.60;70.90;;;;;;6216741;28;94095;-62
2023/12/11 10:30:27;;;;;;;5.90;5.07;;;22.60;70.80;;;;;;6230574;28;94241;-62
2023/12/11 10:33:31;;;;;;;5.88;4.80;;;22.60;70.80;;;;;;6212094;28;94150;-62
2023/12/11 10:36:33;;;;;;;5.78;4.70;;;22.60;70.80;;;;;;6224808;28;93507;-62
2023/12/11 10:39:35;;;;;;;6.43;4.82;;;22.60;70.90;;;;;;6242918;28;94198;-62
2023/12/11 10:42:37;;;;;;;5.28;4.40;;;22.70;70.90;;;;;;6233447;28;93010;-62
2023/12/11 10:45:40;;;;;;;5.40;4.38;;;22.70;70.90;;;;;;6217458;28;93280;-62
2023/12/11 10:48:44;;;;;;;6.20;4.22;;;22.60;70.80;;;;;;6241069;28;94088;-62
2023/12/11 10:51:46;;;;;;;4.80;4.30;;;22.70;70.90;;;;;;6249536;28;94097;-62
2023/12/11 10:54:48;;;;;;;5.85;4.78;;;22.70;71.00;;;;;;6236330;28;95063;-62
2023/12/11 10:57:52;;;;;;;5.05;4.38;;;22.70;71.00;;;;;;6227497;28;94384;-62
2023/12/11 11:00:56;;;;;;;5.68;4.07;;;22.70;71.00;;;;;;6215479;28;94109;-61
2023/12/11 11:03:59;;;;;;;5.43;4.45;;;22.70;71.00;;;;;;6224836;28;94095;-62
2023/12/11 11:07:12;;;;;;;4.55;4.00;;;22.60;70.90;;;;;;6230525;28;94425;-61
2023/12/11 11:10:19;;;;;;;5.85;4.35;;;22.60;71.00;;;;;;6226561;28;94077;-62
2023/12/11 11:13:24;;;;;;;6.82;4.50;;;22.70;71.00;;;;;;6230374;28;94074;-62
2023/12/11 11:16:52;;;;;;;4.93;4.00;;;22.60;71.00;;;;;;6227025;28;93465;-62
2023/12/11 11:20:14;;;;;;;4.90;3.80;;;22.70;71.10;;;;;;6218285;28;94028;-62
2023/12/11 11:23:26;;;;;;;5.40;3.97;;;22.70;71.00;;;;;;6231545;28;94108;-62
2023/12/11 11:26:33;;;;;;;4.60;3.80;;;22.60;70.90;;;;;;6220107;28;95150;-62
2023/12/11 11:29:39;;;;;;;4.72;3.85;;;22.70;71.00;;;;;;6215893;28;94063;-61
2023/12/11 11:32:55;;;;;;;4.85;3.60;;;22.70;71.00;;;;;;6219616;28;94012;-62
2023/12/11 11:35:59;;;;;;;4.68;3.80;;;22.70;71.00;;;;;;6214681;28;94065;-62
2023/12/11 11:39:04;;;;;;;4.00;3.40;;;22.70;71.00;;;;;;6228401;28;94153;-62
2023/12/11 11:42:06;;;;;;;5.07;3.60;;;22.70;71.00;;;;;;6212528;28;94573;-62
2023/12/11 11:45:09;;;;;;;4.85;3.63;;;22.70;71.00;;;;;;6219335;28;94048;-61
2023/12/11 11:48:12;;;;;;;4.43;3.53;;;22.70;71.00;;;;;;6233532;28;93359;-62
2023/12/11 11:51:17;;;;;;;4.68;3.40;;;22.70;71.00;;;;;;6226932;28;94097;-62
2023/12/11 11:54:19;;;;;;;3.70;3.10;;;22.70;71.00;;;;;;6236146;28;94170;-62
2023/12/11 11:57:27;;;;;;;3.40;3.10;;;22.70;71.00;;;;;;6205935;28;95179;-62
2023/12/11 12:00:31;;;;;;;3.50;3.20;;;22.70;71.00;;;;;;6225515;28;94078;-62
2023/12/11 12:03:40;;;;;;;3.92;3.25;;;22.70;71.50;;;;;;6215106;28;94203;-62
2023/12/11 12:06:43;;;;;;;3.63;3.08;;;22.70;71.00;;;;;;6231581;28;94549;-62
2023/12/11 12:09:51;;;;;;;3.70;3.30;;;22.70;71.00;;;;;;6227814;28;94125;-62
2023/12/11 12:12:56;;;;;;;3.50;3.10;;;22.70;71.00;;;;;;6220864;28;94229;-62
2023/12/11 12:15:58;;;;;;;3.95;3.13;;;22.70;71.00;;;;;;6221138;28;94486;-62
2023/12/11 12:19:00;;;;;;;3.75;3.03;;;22.70;71.00;;;;;;6230706;28;92247;-62
2023/12/11 12:22:04;;;;;;;4.10;3.17;;;22.70;71.00;;;;;;6210714;28;94078;-62
2023/12/11 12:25:15;;;;;;;4.32;3.10;;;22.70;71.00;;;;;;6229138;28;94160;-62
2023/12/11 12:28:17;;;;;;;4.53;3.30;;;22.70;71.00;;;;;;6227778;28;95325;-62
2023/12/11 12:31:19;;;;;;;6.45;3.72;;;22.70;71.00;;;;;;6216407;28;94305;-62
2023/12/11 12:34:22;;;;;;;3.35;2.85;;;22.70;71.00;;;;;;6231277;28;94224;-62
2023/12/11 12:37:26;;;;;;;3.75;2.95;;;22.70;71.00;;;;;;6215977;28;94213;-62
2023/12/11 12:40:30;;;;;;;4.28;3.10;;;22.70;71.00;;;;;;6229192;28;93990;-61
2023/12/11 12:43:32;;;;;;;3.50;2.88;;;22.70;71.00;;;;;;6229096;28;94623;-62
2023/12/11 12:46:41;;;;;;;2.92;2.60;;;22.70;71.00;;;;;;6224411;28;94206;-62
2023/12/11 12:49:46;;;;;;;3.10;2.47;;;22.70;71.00;;;;;;6223443;28;93808;-61
2023/12/11 12:52:50;;;;;;;3.28;2.83;;;22.70;71.10;;;;;;6228316;28;94039;-62
2023/12/11 12:55:52;;;;;;;3.83;2.80;;;22.70;71.10;;;;;;6227423;28;94122;-61
2023/12/11 12:58:55;;;;;;;3.70;2.72;;;22.70;71.00;;;;;;6213077;28;95318;-62
2023/12/11 13:01:57;;;;;;;3.70;2.50;;;22.70;71.00;;;;;;6209552;28;94208;-62
2023/12/11 13:04:59;;;;;;;3.83;2.80;;;22.70;71.00;;;;;;6210540;28;94134;-62
2023/12/11 13:08:03;;;;;;;3.38;2.42;;;22.70;71.10;;;;;;6228351;28;94078;-62
2023/12/11 13:11:06;;;;;;;2.97;2.55;;;22.70;71.10;;;;;;6229001;28;94167;-61
2023/12/11 13:14:09;;;;;;;2.83;2.40;;;22.70;71.10;;;;;;6229426;28;94165;-62
2023/12/11 13:17:11;;;;;;;2.90;2.38;;;22.70;71.10;;;;;;6233985;28;94239;-62
2023/12/11 13:20:13;;;;;;;4.05;2.70;;;22.70;71.10;;;;;;6222321;28;93409;-62
2023/12/11 13:23:16;;;;;;;2.83;2.45;;;22.70;71.10;;;;;;6218079;28;94456;-62
2023/12/11 13:26:18;;;;;;;2.78;2.47;;;22.70;71.10;;;;;;6220716;28;94249;-62
2023/12/11 13:29:20;;;;;;;3.83;2.70;;;22.70;71.00;;;;;;6221782;28;95389;-61
2023/12/11 13:32:22;;;;;;;3.95;2.60;;;22.70;71.00;;;;;;6220486;28;94091;-61
2023/12/11 13:35:24;;;;;;;3.67;2.72;;;22.70;71.00;;;;;;6222504;28;94260;-62
2023/12/11 13:38:28;;;;;;;2.90;2.33;;;22.80;71.10;;;;;;6224722;28;94160;-62
2023/12/11 13:41:30;;;;;;;2.83;2.40;;;22.80;71.10;;;;;;6225015;28;94170;-62
2023/12/11 13:44:32;;;;;;;2.67;2.10;;;22.80;71.20;;;;;;6224774;28;94102;-62
2023/12/11 13:47:34;;;;;;;2.75;2.20;;;22.70;71.10;;;;;;6220040;28;94070;-62
2023/12/11 13:50:36;;;;;;;4.07;2.47;;;22.70;71.10;;;;;;6214703;28;93426;-61
2023/12/11 13:53:39;;;;;;;3.33;2.22;;;22.80;71.10;;;;;;6229201;28;94444;-62
2023/12/11 13:56:41;;;;;;;3.03;2.17;;;22.70;71.00;;;;;;6223695;28;95264;-61
2023/12/11 13:59:43;;;;;;;4.97;2.67;;;22.80;71.10;;;;;;6208204;28;95176;-62
2023/12/11 14:02:46;;;;;;;3.10;2.33;;;22.80;71.10;;;;;;6212615;28;94102;-62
2023/12/11 14:05:49;;;;;;;3.42;2.20;;;22.80;71.10;;;;;;6226098;28;94388;-61
2023/12/11 14:08:52;;;;;;;2.08;1.85;;;22.80;71.10;;;;;;6224012;28;94123;-62
2023/12/11 14:11:54;;;;;;;2.33;2.00;;;22.80;71.10;;;;;;6217182;28;94071;-62
2023/12/11 14:14:56;;;;;;;2.92;1.90;;;22.80;71.40;;;;;;6221404;28;94088;-62
2023/12/11 14:17:58;;;;;;;2.42;1.90;;;22.80;71.10;;;;;;6208948;28;94136;-61
2023/12/11 14:21:01;;;;;;;2.47;2.08;;;22.80;71.10;;;;;;6219432;28;95141;-61
2023/12/11 14:24:05;;;;;;;2.08;1.88;;;22.80;71.00;;;;;;6216000;28;94120;-62
2023/12/11 14:27:10;;;;;;;2.63;2.00;;;22.80;71.00;;;;;;6228812;28;94107;-62
2023/12/11 14:30:12;;;;;;;3.53;2.20;;;22.80;71.00;;;;;;6220877;28;95020;-62
2023/12/11 14:33:14;;;;;;;3.53;2.20;;;22.80;71.10;;;;;;6225524;28;94132;-62
2023/12/11 14:36:16;;;;;;;4.03;2.35;;;22.90;71.10;;;;;;6217388;28;94080;-62
2023/12/11 14:39:20;;;;;;;2.03;1.70;;;22.80;71.10;;;;;;6228486;28;94065;-61
2023/12/11 14:42:23;;;;;;;2.55;2.00;;;22.80;71.10;;;;;;6217519;28;94097;-62
2023/12/11 14:45:25;;;;;;;2.10;1.70;;;22.80;71.10;;;;;;6227325;28;94053;-62
2023/12/11 14:48:27;;;;;;;2.45;1.92;;;22.80;71.10;;;;;;6212688;28;94119;-62
2023/12/11 14:51:29;;;;;;;2.20;1.88;;;22.90;71.20;;;;;;6216553;28;93915;-62
2023/12/11 14:54:33;;;;;;;2.75;1.90;;;22.80;71.10;;;;;;6214182;28;95891;-61
2023/12/11 14:57:36;;;;;;;2.25;1.83;;;22.80;71.10;;;;;;6205482;28;94117;-62
2023/12/11 15:00:38;;;;;;;3.03;2.13;;;22.80;71.10;;;;;;6219222;28;95063;-62
2023/12/11 15:03:40;;;;;;;2.42;1.77;;;22.80;71.10;;;;;;6228746;28;94012;-62
2023/12/11 15:06:42;;;;;;;2.50;1.92;;;22.80;71.10;;;;;;6221570;28;94080;-61
2023/12/11 15:09:46;;;;;;;2.20;1.90;;;22.80;71.10;;;;;;6218417;28;94061;-62
2023/12/11 15:12:48;;;;;;;2.58;2.00;;;22.80;71.10;;;;;;6233723;28;94233;-62
2023/12/11 15:15:50;;;;;;;2.42;1.90;;;22.80;71.10;;;;;;6226848;28;94124;-62
2023/12/11 15:18:52;;;;;;;2.30;1.73;;;22.80;71.10;;;;;;6217284;28;94175;-62
2023/12/11 15:21:54;;;;;;;2.30;1.75;;;22.80;71.10;;;;;;6243850;28;93763;-62
2023/12/11 15:24:57;;;;;;;4.55;2.38;;;22.80;71.10;;;;;;6226091;28;94109;-62
2023/12/11 15:27:59;;;;;;;2.92;1.92;;;22.80;71.00;;;;;;6242724;28;94202;-61
2023/12/11 15:31:01;;;;;;;3.47;1.85;;;22.80;71.00;;;;;;6217509;28;95364;-62
2023/12/11 15:34:04;;;;;;;2.45;1.70;;;22.80;72.00;;;;;;6233267;28;94643;-62
2023/12/11 15:37:05;;;;;;;2.40;1.77;;;22.80;71.10;;;;;;6250619;28;94118;-61
2023/12/11 15:40:10;;;;;;;2.22;1.77;;;22.80;71.10;;;;;;6226279;28;93970;-62